Time;durP1;ratioP1;P1;durP2;ratioP2;P2;SDS_P1;SDS_P2;PMS_P1;PMS_P2;Temp;Humidity;BMP_temperature;BMP_pressure;BME280_temperature;BME280_humidity;BME280_pressure;Samples;Min_cycle;Max_cycle;Signal;HPM_P1;HPM_P2
2023/11/20 00:02:58;;;;;;;10.90;4.30;;;;;;;6.85;100.00;98820.59;220148;1256;140104;-68
2023/11/20 00:08:00;;;;;;;17.10;5.90;;;;;;;6.89;100.00;98823.98;220204;1256;139963;-68
2023/11/20 00:13:03;;;;;;;12.00;5.50;;;;;;;6.91;100.00;98824.83;220197;1256;140888;-68
2023/11/20 00:18:06;;;;;;;13.70;5.30;;;;;;;6.93;100.00;98823.66;220232;1256;140709;-68
2023/11/20 00:23:08;;;;;;;6.60;4.20;;;;;;;6.94;100.00;98824.16;220069;1256;140548;-68
2023/11/20 00:28:10;;;;;;;5.70;4.30;;;;;;;6.97;100.00;98823.42;220206;1256;141516;-68
2023/11/20 00:33:13;;;;;;;11.70;4.60;;;;;;;7.00;100.00;98822.82;220163;1256;142524;-68
2023/11/20 00:38:16;;;;;;;18.70;5.20;;;;;;;7.04;100.00;98828.17;220058;1256;141146;-68
2023/11/20 00:43:19;;;;;;;14.70;5.80;;;;;;;7.06;100.00;98835.30;217704;1258;140922;-67
2023/11/20 00:48:23;;;;;;;10.20;5.80;;;;;;;7.06;100.00;98830.71;219208;1256;140725;-66
2023/11/20 00:53:26;;;;;;;9.40;4.50;;;;;;;7.05;100.00;98832.48;220395;1256;140846;-68
2023/11/20 00:58:29;;;;;;;16.20;4.70;;;;;;;7.06;100.00;98834.99;220175;1256;140368;-68
2023/11/20 01:03:33;;;;;;;8.30;3.50;;;;;;;7.09;100.00;98832.14;220313;1255;140888;-68
2023/11/20 01:08:36;;;;;;;11.20;4.90;;;;;;;7.12;100.00;98832.30;219677;1256;140002;-68
2023/11/20 01:13:39;;;;;;;8.30;4.40;;;;;;;7.14;100.00;98835.31;220165;1255;139622;-68
2023/11/20 01:18:41;;;;;;;11.10;4.50;;;;;;;7.17;100.00;98834.69;217918;1256;419296;-67
2023/11/20 01:23:43;;;;;;;8.20;5.40;;;;;;;7.18;100.00;98833.23;220580;1254;139920;-67
2023/11/20 01:28:46;;;;;;;13.90;5.10;;;;;;;7.19;100.00;98833.30;220175;1256;142172;-68
2023/11/20 01:33:48;;;;;;;5.70;3.60;;;;;;;7.20;100.00;98831.94;219803;1259;140325;-68
2023/11/20 01:38:52;;;;;;;8.70;6.20;;;;;;;7.21;100.00;98835.63;220138;1254;140345;-68
2023/11/20 01:43:55;;;;;;;7.70;3.60;;;;;;;7.22;100.00;98843.86;219827;1255;139603;-68
2023/11/20 01:48:59;;;;;;;7.90;4.40;;;;;;;7.23;100.00;98844.42;220486;1255;140672;-68
2023/11/20 01:54:04;;;;;;;8.60;4.30;;;;;;;7.26;100.00;98843.40;220464;1256;140150;-68
2023/11/20 01:59:08;;;;;;;15.20;5.90;;;;;;;7.28;100.00;98839.70;220228;1256;140469;-68
2023/11/20 02:04:13;;;;;;;19.80;6.90;;;;;;;7.30;100.00;98838.41;220254;1256;140445;-68
2023/11/20 02:09:17;;;;;;;12.60;6.30;;;;;;;7.33;100.00;98831.66;220148;1256;140389;-68
2023/11/20 02:14:21;;;;;;;10.30;5.00;;;;;;;7.34;100.00;98834.08;220316;1256;140275;-68
2023/11/20 02:19:24;;;;;;;7.50;6.40;;;;;;;7.36;100.00;98828.28;220150;1256;140778;-68
2023/11/20 02:24:27;;;;;;;14.30;5.70;;;;;;;7.38;100.00;98827.10;220293;1258;141681;-68
2023/11/20 02:29:30;;;;;;;8.80;4.20;;;;;;;7.40;100.00;98822.94;220473;1255;140920;-68
2023/11/20 02:34:33;;;;;;;13.30;5.50;;;;;;;7.40;100.00;98815.20;220419;1256;140964;-68
2023/11/20 02:39:37;;;;;;;4.80;3.60;;;;;;;7.40;100.00;98813.08;220215;1256;140312;-68
2023/11/20 02:44:43;;;;;;;12.20;6.00;;;;;;;7.41;100.00;98818.46;220127;1256;140456;-68
2023/11/20 02:49:46;;;;;;;19.50;7.50;;;;;;;7.44;100.00;98824.04;219900;1256;140215;-68
2023/11/20 02:54:50;;;;;;;12.30;6.10;;;;;;;7.47;100.00;98826.52;220163;1256;141275;-68
2023/11/20 02:59:53;;;;;;;14.00;5.70;;;;;;;7.45;100.00;98827.08;218095;1257;140937;-68
2023/11/20 03:04:57;;;;;;;8.70;5.50;;;;;;;7.47;100.00;98825.41;217631;1256;142162;-67
2023/11/20 03:10:03;;;;;;;14.50;5.80;;;;;;;7.48;100.00;98831.52;218153;1256;140595;-67
2023/11/20 03:15:07;;;;;;;11.90;5.80;;;;;;;7.47;100.00;98832.36;220115;1256;140865;-67
2023/11/20 03:20:12;;;;;;;7.20;4.30;;;;;;;7.47;100.00;98826.69;218452;1256;141904;-68
2023/11/20 03:25:16;;;;;;;14.70;5.30;;;;;;;7.47;100.00;98827.44;220158;1256;140959;-67
2023/11/20 03:30:19;;;;;;;5.60;3.90;;;;;;;7.47;100.00;98827.73;217749;1260;140457;-67
2023/11/20 03:35:22;;;;;;;10.10;4.30;;;;;;;7.46;100.00;98825.39;220256;1256;140654;-67
2023/11/20 03:40:25;;;;;;;11.60;5.40;;;;;;;7.47;100.00;98825.30;220215;1256;140133;-67
2023/11/20 03:45:28;;;;;;;8.30;5.20;;;;;;;7.47;100.00;98820.59;220237;1256;142102;-67
2023/11/20 03:50:31;;;;;;;12.50;6.60;;;;;;;7.50;100.00;98817.63;220392;1257;140964;-67
2023/11/20 03:55:34;;;;;;;14.60;4.80;;;;;;;7.52;100.00;98820.32;220389;1255;139969;-67
2023/11/20 04:00:37;;;;;;;21.00;7.40;;;;;;;7.52;100.00;98819.84;220468;1259;142490;-67
2023/11/20 04:05:41;;;;;;;21.80;7.20;;;;;;;7.52;100.00;98816.02;220490;1257;140874;-68
2023/11/20 04:10:44;;;;;;;9.10;4.70;;;;;;;7.53;100.00;98818.59;220311;1255;141337;-67
2023/11/20 04:15:47;;;;;;;10.80;5.50;;;;;;;7.53;100.00;98808.72;220320;1257;140933;-67
2023/11/20 04:20:51;;;;;;;13.30;6.00;;;;;;;7.55;100.00;98810.67;220309;1257;140360;-67
2023/11/20 04:25:54;;;;;;;10.80;5.10;;;;;;;7.55;100.00;98805.53;220200;1256;141817;-67
2023/11/20 04:31:00;;;;;;;13.00;6.10;;;;;;;7.56;100.00;98800.30;220281;1255;142142;-67
2023/11/20 04:36:04;;;;;;;17.20;7.60;;;;;;;7.57;100.00;98805.14;220574;1257;140723;-68
2023/11/20 04:41:06;;;;;;;14.20;6.30;;;;;;;7.57;100.00;98808.75;220258;1256;141606;-67
2023/11/20 04:46:09;;;;;;;13.60;7.40;;;;;;;7.58;100.00;98808.02;220389;1257;140649;-68
2023/11/20 04:51:22;;;;;;;11.20;6.00;;;;;;;7.58;100.00;98809.15;220527;1256;140305;-67
2023/11/20 04:56:25;;;;;;;11.60;5.40;;;;;;;7.59;100.00;98806.14;220289;1256;141376;-68
2023/11/20 05:01:34;;;;;;;14.50;6.40;;;;;;;7.60;100.00;98806.95;219597;1256;140066;-67
2023/11/20 05:06:37;;;;;;;26.80;9.20;;;;;;;7.60;100.00;98808.38;217771;1258;152061;-67
2023/11/20 05:11:41;;;;;;;10.30;5.80;;;;;;;7.59;100.00;98807.66;220404;1259;140436;-67
2023/11/20 05:16:43;;;;;;;9.50;7.10;;;;;;;7.58;100.00;98810.41;220365;1257;140582;-67
2023/11/20 05:21:47;;;;;;;14.40;7.10;;;;;;;7.56;100.00;98812.70;218154;1256;139974;-67
2023/11/20 05:26:52;;;;;;;15.90;7.00;;;;;;;7.56;100.00;98812.34;220189;1256;140723;-68
2023/11/20 05:31:55;;;;;;;19.80;7.30;;;;;;;7.56;100.00;98815.47;220139;1256;140380;-66
2023/11/20 05:36:59;;;;;;;12.40;7.20;;;;;;;7.58;100.00;98811.27;219746;1258;140338;-66
2023/11/20 05:42:02;;;;;;;24.10;7.20;;;;;;;7.57;100.00;98813.73;219916;1258;140202;-68
2023/11/20 05:47:06;;;;;;;10.50;6.90;;;;;;;7.57;100.00;98812.36;220304;1257;140587;-68
2023/11/20 05:52:10;;;;;;;17.60;7.10;;;;;;;7.57;100.00;98818.63;220279;1257;142751;-67
2023/11/20 05:57:13;;;;;;;13.80;6.30;;;;;;;7.57;100.00;98825.36;220118;1257;140643;-67
2023/11/20 06:02:16;;;;;;;14.90;7.10;;;;;;;7.59;100.00;98826.02;220190;1259;140004;-66
2023/11/20 06:07:19;;;;;;;12.90;7.30;;;;;;;7.62;100.00;98829.11;219932;1256;140226;-72
2023/11/20 06:12:22;;;;;;;7.40;4.00;;;;;;;7.64;100.00;98828.44;220243;1257;140480;-69
2023/11/20 06:17:25;;;;;;;14.80;6.60;;;;;;;7.65;100.00;98834.77;220189;1256;140496;-69
2023/11/20 06:22:28;;;;;;;13.60;7.10;;;;;;;7.66;100.00;98834.41;220182;1256;140731;-68
2023/11/20 06:27:31;;;;;;;13.50;7.70;;;;;;;7.68;100.00;98838.48;220056;1256;140362;-68
2023/11/20 06:32:35;;;;;;;11.10;7.30;;;;;;;7.71;100.00;98843.16;220142;1256;142159;-67
2023/11/20 06:37:38;;;;;;;13.90;9.70;;;;;;;7.73;100.00;98846.74;220032;1256;141316;-69
2023/11/20 06:42:41;;;;;;;47.40;26.60;;;;;;;7.75;100.00;98849.13;219921;1256;140029;-70
2023/11/20 06:47:44;;;;;;;59.30;28.80;;;;;;;7.79;100.00;98857.89;220350;1258;141046;-69
2023/11/20 06:52:48;;;;;;;17.80;9.70;;;;;;;7.83;100.00;98855.58;220314;1259;140622;-71
2023/11/20 06:57:52;;;;;;;20.60;12.90;;;;;;;7.88;100.00;98855.55;220050;1256;140674;-70
2023/11/20 07:02:55;;;;;;;19.30;8.70;;;;;;;7.90;100.00;98857.57;220151;1259;141496;-68
2023/11/20 07:08:05;;;;;;;13.90;7.10;;;;;;;7.96;100.00;98863.45;220140;1256;140307;-70
2023/11/20 07:13:09;;;;;;;11.20;6.80;;;;;;;7.99;100.00;98867.69;220126;1259;140327;-68
2023/11/20 07:18:11;;;;;;;9.60;6.10;;;;;;;8.01;100.00;98864.38;220146;1257;139943;-71
2023/11/20 07:23:14;;;;;;;17.90;7.30;;;;;;;8.03;100.00;98866.95;220058;1257;142561;-67
2023/11/20 07:28:17;;;;;;;13.20;7.00;;;;;;;8.05;100.00;98867.38;220181;1259;140231;-68
2023/11/20 07:33:19;;;;;;;9.60;6.30;;;;;;;8.10;100.00;98869.58;220042;1258;142207;-66
2023/11/20 07:38:22;;;;;;;12.00;6.80;;;;;;;8.14;100.00;98870.88;218737;1256;140239;-67
2023/11/20 07:43:25;;;;;;;12.20;8.50;;;;;;;8.17;100.00;98871.83;217476;1260;141044;-66
2023/11/20 07:48:29;;;;;;;14.80;7.90;;;;;;;8.12;100.00;98869.88;220305;1260;141238;-69
2023/11/20 07:53:33;;;;;;;7.90;6.50;;;;;;;8.12;100.00;98865.59;220086;1256;140461;-69
2023/11/20 07:58:39;;;;;;;11.70;6.20;;;;;;;8.15;100.00;98871.48;220165;1260;142284;-69
2023/11/20 08:03:43;;;;;;;10.30;5.80;;;;;;;8.19;100.00;98875.85;219605;1260;142342;-69
2023/11/20 08:08:48;;;;;;;10.60;5.80;;;;;;;8.23;100.00;98870.98;220057;1260;140325;-69
2023/11/20 08:13:50;;;;;;;11.50;5.90;;;;;;;8.26;100.00;98868.85;220145;1257;140648;-69
2023/11/20 08:18:56;;;;;;;9.30;3.90;;;;;;;8.29;100.00;98871.85;220255;1260;141443;-66
2023/11/20 08:24:00;;;;;;;15.50;7.30;;;;;;;8.30;100.00;98875.38;220267;1260;140520;-66
2023/11/20 08:29:03;;;;;;;8.80;4.30;;;;;;;8.36;100.00;98877.05;220374;1260;140085;-67
2023/11/20 08:34:07;;;;;;;17.70;8.20;;;;;;;8.42;100.00;98881.95;220338;1258;140284;-67
2023/11/20 08:39:14;;;;;;;7.40;6.70;;;;;;;8.54;100.00;98877.81;220334;1259;140551;-69
2023/11/20 08:44:17;;;;;;;9.20;5.80;;;;;;;8.68;100.00;98878.20;220138;1260;142695;-69
2023/11/20 08:49:20;;;;;;;7.60;6.20;;;;;;;8.82;100.00;98878.19;220139;1256;140567;-69
2023/11/20 08:54:24;;;;;;;8.70;5.70;;;;;;;8.90;100.00;98884.45;220367;1256;141923;-71
2023/11/20 08:59:27;;;;;;;11.10;5.50;;;;;;;8.98;100.00;98885.27;219683;1260;139907;-72
2023/11/20 09:04:34;;;;;;;;;;;;;;;9.12;100.00;98884.23;220180;1258;143093;-70
2023/11/20 09:09:38;;;;;;;8.20;5.30;;;;;;;9.24;100.00;98883.48;218612;1257;126569;-70
2023/11/20 09:14:40;;;;;;;5.40;4.40;;;;;;;9.38;100.00;98880.10;220131;1258;140959;-70
2023/11/20 09:19:43;;;;;;;5.90;5.30;;;;;;;9.43;100.00;98875.44;220045;1257;140552;-70
2023/11/20 09:24:46;;;;;;;8.70;5.40;;;;;;;9.48;100.00;98872.28;220235;1257;140307;-70
2023/11/20 09:30:04;;;;;;;9.30;5.20;;;;;;;9.49;99.96;98875.52;218228;1260;142258;-69
2023/11/20 09:35:09;;;;;;;7.60;5.30;;;;;;;9.47;99.71;98872.17;220454;1257;141319;-70
2023/11/20 09:40:14;;;;;;;10.30;5.80;;;;;;;9.43;99.52;98865.48;218836;1260;140174;-69
2023/11/20 09:45:39;;;;;;;8.70;5.20;;;;;;;9.36;99.29;98865.17;219348;1257;140872;-68
2023/11/20 09:50:57;;;;;;;8.10;4.80;;;;;;;9.31;99.38;98861.61;220144;1260;141145;-69
2023/11/20 09:56:15;;;;;;;12.10;6.00;;;;;;;9.30;99.53;98852.19;219540;1255;140191;-68
2023/11/20 10:01:19;;;;;;;11.80;6.30;;;;;;;9.34;99.50;98852.39;220331;1257;140882;-68
2023/11/20 10:06:25;;;;;;;16.80;6.90;;;;;;;9.37;99.58;98853.48;220485;1257;140677;-68
2023/11/20 10:11:33;;;;;;;12.80;5.80;;;;;;;9.45;99.72;98848.11;219996;1257;140143;-68
2023/11/20 10:16:39;;;;;;;9.20;6.00;;;;;;;9.53;99.71;98845.84;220154;1257;141302;-68
2023/11/20 10:21:44;;;;;;;6.90;5.80;;;;;;;9.60;99.66;98844.33;220244;1258;141608;-68
2023/11/20 10:26:48;;;;;;;7.80;6.90;;;;;;;9.63;99.36;98837.49;220370;1257;140182;-68
2023/11/20 10:31:57;;;;;;;7.20;6.00;;;;;;;9.62;99.00;98830.94;220144;1257;140504;-67
2023/11/20 10:37:10;;;;;;;11.40;6.30;;;;;;;9.62;99.08;98830.46;220044;1256;141305;-68
2023/11/20 10:42:15;;;;;;;11.00;7.80;;;;;;;9.64;98.82;98830.05;220230;1255;140887;-70
2023/11/20 10:47:20;;;;;;;17.50;9.50;;;;;;;9.69;99.11;98826.45;220366;1257;140281;-69
2023/11/20 10:52:29;;;;;;;15.60;7.90;;;;;;;9.77;98.99;98824.50;220419;1257;140557;-69
2023/11/20 10:57:33;;;;;;;13.60;8.50;;;;;;;9.82;98.58;98823.09;220474;1255;140531;-69
2023/11/20 11:02:40;;;;;;;12.60;9.50;;;;;;;9.84;98.20;98816.88;219713;1257;141103;-68
2023/11/20 11:07:43;;;;;;;14.70;7.90;;;;;;;9.87;98.32;98815.21;220209;1257;139995;-68
2023/11/20 11:12:46;;;;;;;15.30;9.10;;;;;;;9.94;98.24;98813.20;219544;1257;141070;-68
2023/11/20 11:18:14;;;;;;;9.40;6.30;;;;;;;10.03;98.23;98800.67;219631;1257;140585;-69
2023/11/20 11:23:40;;;;;;;15.00;8.60;;;;;;;10.14;98.23;98796.73;219283;1257;141003;-68
2023/11/20 11:28:50;;;;;;;11.80;8.60;;;;;;;10.13;97.64;98793.75;220467;1256;141340;-69
2023/11/20 11:34:14;;;;;;;9.10;5.50;;;;;;;10.14;97.36;98793.29;218081;1257;140555;-68
2023/11/20 11:39:30;;;;;;;16.10;7.80;;;;;;;10.16;97.27;98791.91;220384;1257;141021;-67
2023/11/20 11:45:09;;;;;;;11.00;6.80;;;;;;;10.22;97.29;98793.38;218558;1257;140602;-66
2023/11/20 11:50:18;;;;;;;11.00;7.00;;;;;;;10.23;97.12;98793.39;219534;1256;140297;-69
2023/11/20 11:55:42;;;;;;;14.90;7.20;;;;;;;10.29;97.16;98798.14;219882;1257;142029;-68
2023/11/20 12:01:23;;;;;;;13.20;8.00;;;;;;;10.39;97.08;98792.34;220311;1256;140731;-68
2023/11/20 12:06:30;;;;;;;19.00;6.70;;;;;;;10.49;96.65;98791.27;217994;1258;141683;-67
2023/11/20 12:11:52;;;;;;;6.30;5.50;;;;;;;10.53;96.45;98794.02;220477;1256;140989;-67
2023/11/20 12:17:01;;;;;;;8.80;6.10;;;;;;;10.54;96.22;98787.00;220493;1256;140082;-67
2023/11/20 12:22:08;;;;;;;11.20;6.40;;;;;;;10.60;96.29;98782.88;220445;1256;234726;-66
2023/11/20 12:27:20;;;;;;;11.30;5.20;;;;;;;10.66;96.00;98783.66;220393;1256;140862;-66
2023/11/20 12:32:27;;;;;;;8.30;5.00;;;;;;;10.62;95.51;98781.40;220282;1257;140918;-66
2023/11/20 12:37:34;;;;;;;7.60;6.10;;;;;;;10.56;95.16;98779.34;220135;1256;140176;-66
2023/11/20 12:42:40;;;;;;;10.30;6.30;;;;;;;10.56;95.29;98777.48;220095;1256;140511;-66
2023/11/20 12:47:45;;;;;;;7.00;6.10;;;;;;;10.59;95.20;98774.17;220201;1256;140803;-67
2023/11/20 12:52:49;;;;;;;11.10;6.10;;;;;;;10.61;95.12;98777.45;220470;1256;140959;-66
2023/11/20 12:57:54;;;;;;;7.10;5.50;;;;;;;10.52;94.50;98773.07;220001;1256;141029;-67
2023/11/20 13:08:48;;;;;;;11.00;6.00;;;;;;;10.29;94.15;98775.96;220259;1257;140324;-66
2023/11/20 13:13:51;;;;;;;6.40;5.20;;;;;;;10.22;94.60;98773.94;219710;1256;140902;-65
2023/11/20 13:18:56;;;;;;;7.70;6.50;;;;;;;10.16;94.43;98777.16;220069;1256;572909;-65
2023/11/20 13:24:02;;;;;;;9.90;7.00;;;;;;;10.04;94.11;98780.23;219580;1256;140218;-68
2023/11/20 13:29:10;;;;;;;20.10;7.60;;;;;;;10.00;94.50;98775.24;220144;1257;140370;-67
2023/11/20 13:34:15;;;;;;;7.80;5.90;;;;;;;9.98;94.47;98781.94;219282;1257;141243;-68
2023/11/20 13:39:19;;;;;;;7.70;5.50;;;;;;;9.99;94.71;98782.95;217179;1256;140118;-67
2023/11/20 13:44:24;;;;;;;10.20;7.70;;;;;;;9.95;94.42;98783.08;220177;1256;140589;-67
2023/11/20 13:49:26;;;;;;;8.40;5.80;;;;;;;9.89;94.50;98781.63;219970;1256;140917;-71
2023/11/20 13:54:28;;;;;;;9.40;6.70;;;;;;;9.79;94.31;98782.29;220160;1256;142063;-69
2023/11/20 13:59:31;;;;;;;8.90;6.60;;;;;;;9.75;94.51;98780.35;219999;1256;139904;-68
2023/11/20 14:04:34;;;;;;;10.00;6.30;;;;;;;9.74;94.73;98781.58;219985;1257;140167;-68
2023/11/20 14:09:37;;;;;;;8.30;7.00;;;;;;;9.73;94.88;98782.41;220064;1256;141332;-69
2023/11/20 14:14:39;;;;;;;13.50;7.80;;;;;;;9.72;94.75;98783.58;220115;1256;140638;-68
2023/11/20 14:19:42;;;;;;;7.00;6.20;;;;;;;9.71;94.76;98781.38;220021;1256;140893;-69
2023/11/20 14:24:44;;;;;;;9.20;7.90;;;;;;;9.70;94.78;98781.58;220206;1256;140159;-69
2023/11/20 14:29:47;;;;;;;13.70;7.70;;;;;;;9.68;94.78;98784.39;220469;1256;140566;-69
2023/11/20 14:34:51;;;;;;;9.90;6.30;;;;;;;9.63;94.72;98789.33;220348;1256;140492;-70
2023/11/20 14:39:56;;;;;;;11.20;6.30;;;;;;;9.59;94.64;98788.49;220126;1256;140966;-70
2023/11/20 14:45:00;;;;;;;14.30;6.80;;;;;;;9.54;94.65;98791.73;220302;1257;140346;-69
2023/11/20 14:50:06;;;;;;;9.40;6.50;;;;;;;9.50;94.62;98790.52;219958;1256;141032;-68
2023/11/20 14:55:10;;;;;;;6.10;5.50;;;;;;;9.45;94.54;98796.41;220012;1257;140669;-68
2023/11/20 15:00:17;;;;;;;7.20;5.80;;;;;;;9.35;94.15;98795.54;220043;1256;140698;-67
2023/11/20 15:05:23;;;;;;;12.10;7.80;;;;;;;9.22;94.26;98799.37;219942;1257;140871;-69
2023/11/20 15:10:27;;;;;;;11.10;8.30;;;;;;;9.17;94.66;98801.77;220178;1257;141042;-69
2023/11/20 15:15:30;;;;;;;14.20;8.80;;;;;;;9.16;94.76;98802.56;219952;1256;140403;-69
2023/11/20 15:20:35;;;;;;;16.70;8.10;;;;;;;9.13;94.76;98807.79;220097;1256;140793;-70
2023/11/20 15:25:39;;;;;;;11.10;9.90;;;;;;;9.07;94.67;98814.95;217973;1256;141777;-68
2023/11/20 15:30:43;;;;;;;11.50;9.20;;;;;;;9.04;94.87;98814.43;219222;1257;142584;-67
2023/11/20 15:35:48;;;;;;;17.70;9.30;;;;;;;9.02;94.97;98813.98;218849;1256;140753;-68
2023/11/20 15:40:51;;;;;;;11.60;8.20;;;;;;;8.96;94.86;98809.54;220250;1256;140912;-67
2023/11/20 15:45:55;;;;;;;14.60;8.60;;;;;;;8.89;94.86;98809.98;218506;1259;143299;-66
2023/11/20 15:51:01;;;;;;;12.80;8.70;;;;;;;8.81;94.72;98812.34;220400;1257;141338;-66
2023/11/20 15:56:14;;;;;;;17.70;11.70;;;;;;;8.75;94.94;98816.87;220274;1256;140838;-68
2023/11/20 16:01:18;;;;;;;25.00;14.60;;;;;;;8.69;95.04;98814.29;218683;1256;140785;-68
2023/11/20 16:06:32;;;;;;;22.80;13.90;;;;;;;8.66;95.33;98814.39;218487;1256;140775;-68
2023/11/20 16:11:35;;;;;;;22.00;13.50;;;;;;;8.68;95.65;98819.79;220122;1256;140550;-69
2023/11/20 16:16:38;;;;;;;22.20;13.90;;;;;;;8.68;95.54;98822.35;219359;1256;140590;-69
2023/11/20 16:21:44;;;;;;;25.90;15.90;;;;;;;8.64;95.57;98827.33;219695;1256;140735;-69
2023/11/20 16:26:47;;;;;;;25.00;15.60;;;;;;;8.61;95.39;98823.92;220156;1256;141224;-68
2023/11/20 16:31:55;;;;;;;18.90;13.60;;;;;;;8.60;95.68;98824.29;220047;1258;141711;-67
2023/11/20 16:36:58;;;;;;;20.70;14.80;;;;;;;8.63;95.87;98825.88;220112;1257;140833;-68
2023/11/20 16:42:00;;;;;;;21.00;13.90;;;;;;;8.65;95.86;98832.50;220237;1256;141121;-69
2023/11/20 16:47:02;;;;;;;22.30;16.90;;;;;;;8.65;95.88;98835.64;220210;1256;141380;-72
2023/11/20 16:52:06;;;;;;;20.50;14.70;;;;;;;8.64;95.63;98834.72;220217;1258;140886;-72
2023/11/20 16:57:10;;;;;;;19.20;14.60;;;;;;;8.63;95.59;98837.94;220223;1258;140580;-69
2023/11/20 17:02:14;;;;;;;15.70;10.70;;;;;;;8.61;95.66;98834.83;219019;1256;140577;-65
2023/11/20 17:07:16;;;;;;;16.00;11.90;;;;;;;8.56;95.31;98833.22;220094;1256;141404;-67
2023/11/20 17:12:19;;;;;;;16.10;13.10;;;;;;;8.51;95.58;98829.44;220169;1256;140427;-68
2023/11/20 17:17:22;;;;;;;15.30;12.00;;;;;;;8.51;95.62;98832.10;220394;1256;140655;-68
2023/11/20 17:22:28;;;;;;;16.40;10.00;;;;;;;8.49;95.41;98829.98;219610;1257;140971;-67
2023/11/20 17:27:32;;;;;;;41.20;24.20;;;;;;;8.40;95.05;98827.98;220534;1256;140774;-68
2023/11/20 17:32:37;;;;;;;51.60;38.90;;;;;;;8.31;95.04;98830.39;220209;1255;140396;-68
2023/11/20 17:37:41;;;;;;;37.10;25.60;;;;;;;8.26;95.50;98830.60;218515;1255;140357;-67
2023/11/20 17:42:43;;;;;;;30.40;21.70;;;;;;;8.24;95.63;98832.61;218723;1256;141818;-66
2023/11/20 17:47:46;;;;;;;38.00;24.10;;;;;;;8.21;95.62;98832.35;218517;1256;140790;-69
2023/11/20 17:52:49;;;;;;;33.00;22.10;;;;;;;8.19;95.72;98831.14;220026;1258;140978;-69
2023/11/20 17:57:52;;;;;;;33.70;22.80;;;;;;;8.14;95.48;98833.83;220148;1256;144092;-69
2023/11/20 18:02:56;;;;;;;34.60;25.00;;;;;;;8.11;95.91;98832.93;220155;1256;141672;-69
2023/11/20 18:08:01;;;;;;;38.70;25.00;;;;;;;8.14;95.85;98839.76;218231;1258;140670;-67
2023/11/20 18:13:05;;;;;;;35.60;26.20;;;;;;;8.14;95.97;98841.46;220040;1258;140317;-67
2023/11/20 18:18:10;;;;;;;45.50;27.80;;;;;;;8.14;96.09;98836.89;220143;1256;140393;-68
2023/11/20 18:23:14;;;;;;;57.10;33.00;;;;;;;8.14;95.95;98840.56;220057;1256;141433;-69
2023/11/20 18:28:18;;;;;;;55.60;32.00;;;;;;;8.16;96.16;98845.10;217380;1256;140376;-68
2023/11/20 18:33:22;;;;;;;58.30;32.60;;;;;;;8.16;96.24;98845.59;219593;1256;140668;-68
2023/11/20 18:38:31;;;;;;;51.30;29.90;;;;;;;8.15;96.21;98838.61;220209;1255;140859;-69
2023/11/20 18:43:33;;;;;;;57.00;31.50;;;;;;;8.14;96.36;98839.45;220406;1254;141606;-69
2023/11/20 18:48:35;;;;;;;51.80;26.90;;;;;;;8.15;96.22;98846.27;220280;1256;141071;-69
2023/11/20 18:53:41;;;;;;;51.70;31.30;;;;;;;8.15;96.23;98847.52;220288;1256;142129;-69
2023/11/20 18:58:43;;;;;;;48.80;28.70;;;;;;;8.17;96.41;98852.66;220242;1256;140355;-69
2023/11/20 19:03:45;;;;;;;47.70;31.00;;;;;;;8.18;96.34;98856.30;220358;1256;140348;-69
2023/11/20 19:08:48;;;;;;;50.30;30.60;;;;;;;8.19;96.27;98861.36;220488;1255;140866;-69
2023/11/20 19:13:51;;;;;;;44.80;28.30;;;;;;;8.20;96.16;98868.39;220431;1257;140683;-69
2023/11/20 19:18:57;;;;;;;47.00;31.70;;;;;;;8.19;96.27;98873.78;220569;1255;140820;-69
2023/11/20 19:24:04;;;;;;;48.50;28.90;;;;;;;8.19;96.39;98873.57;220378;1258;140246;-69
2023/11/20 19:29:07;;;;;;;43.10;27.80;;;;;;;8.18;96.09;98871.38;220247;1259;140302;-69
2023/11/20 19:34:11;;;;;;;39.60;25.30;;;;;;;8.13;96.07;98869.95;220361;1257;140813;-69
2023/11/20 19:39:14;;;;;;;58.30;33.90;;;;;;;8.10;96.20;98873.31;220359;1259;140586;-69
2023/11/20 19:44:16;;;;;;;51.80;35.00;;;;;;;8.10;96.64;98870.33;220016;1257;141176;-69
2023/11/20 19:49:20;;;;;;;45.70;30.00;;;;;;;8.11;96.56;98873.05;219650;1257;140650;-68
2023/11/20 19:54:23;;;;;;;49.80;32.20;;;;;;;8.07;96.28;98875.58;217599;1259;140792;-67
2023/11/20 19:59:27;;;;;;;51.20;26.30;;;;;;;8.02;96.10;98880.16;220057;1256;141139;-70
2023/11/20 20:04:32;;;;;;;57.40;34.30;;;;;;;7.94;96.42;98878.60;219807;1257;140308;-70
2023/11/20 20:09:36;;;;;;;53.70;34.00;;;;;;;7.95;96.88;98872.34;220286;1256;140691;-71
2023/11/20 20:14:39;;;;;;;53.40;29.70;;;;;;;7.97;96.81;98876.09;220224;1256;140333;-68
2023/11/20 20:19:47;;;;;;;51.80;33.50;;;;;;;7.96;96.88;98880.38;220063;1256;140810;-68
2023/11/20 20:24:54;;;;;;;60.50;37.60;;;;;;;7.96;96.93;98887.54;220214;1256;141292;-68
2023/11/20 20:30:02;;;;;;;65.20;38.00;;;;;;;7.97;97.16;98887.61;220313;1256;140274;-68
2023/11/20 20:35:05;;;;;;;40.60;28.30;;;;;;;7.98;97.32;98887.20;220268;1256;140095;-68
2023/11/20 20:40:12;;;;;;;34.60;24.80;;;;;;;7.97;97.25;98886.17;220042;1256;141165;-68
2023/11/20 20:45:15;;;;;;;43.70;25.70;;;;;;;7.95;97.29;98891.20;220345;1257;140225;-68
2023/11/20 20:50:22;;;;;;;40.00;20.70;;;;;;;7.95;97.17;98895.80;220089;1256;141477;-68
2023/11/20 20:55:25;;;;;;;47.70;26.90;;;;;;;7.89;96.98;98902.71;220014;1257;140545;-68
2023/11/20 21:00:33;;;;;;;57.40;30.00;;;;;;;7.82;96.92;98905.13;218325;1256;141130;-68
2023/11/20 21:05:36;;;;;;;;;;;;;;;7.72;96.88;98910.28;220224;1256;140248;-68
2023/11/20 21:10:39;;;;;;;63.50;32.90;;;;;;;7.61;96.80;98905.67;220597;1256;126940;-68
2023/11/20 21:15:43;;;;;;;55.60;31.80;;;;;;;7.49;96.36;98906.66;220025;1256;140556;-67
2023/11/20 21:20:46;;;;;;;59.80;32.50;;;;;;;7.37;96.59;98908.26;220117;1256;142202;-68
2023/11/20 21:25:49;;;;;;;47.80;26.50;;;;;;;7.25;95.81;98911.89;220217;1256;142478;-68
2023/11/20 21:30:52;;;;;;;53.60;29.20;;;;;;;7.13;95.89;98922.21;220166;1256;141977;-68
2023/11/20 21:35:55;;;;;;;55.20;27.40;;;;;;;6.99;95.73;98932.02;220209;1256;140331;-68
2023/11/20 21:40:57;;;;;;;39.50;23.10;;;;;;;6.89;95.72;98936.06;218495;1256;142636;-69
2023/11/20 21:46:00;;;;;;;50.20;26.20;;;;;;;6.76;95.40;98944.95;220015;1257;140378;-70
2023/11/20 21:51:03;;;;;;;46.10;24.80;;;;;;;6.60;95.18;98952.11;220259;1256;140941;-70
2023/11/20 21:56:08;;;;;;;42.60;21.20;;;;;;;6.46;95.55;98952.17;220306;1256;140181;-70
2023/11/20 22:01:11;;;;;;;83.40;23.20;;;;;;;6.37;95.34;98953.10;220299;1256;140651;-70
2023/11/20 22:06:15;;;;;;;37.10;20.70;;;;;;;6.29;94.73;98948.27;220301;1256;140712;-69
2023/11/20 22:11:19;;;;;;;35.20;17.90;;;;;;;6.18;94.69;98948.30;220230;1256;140794;-70
2023/11/20 22:16:22;;;;;;;32.80;16.10;;;;;;;6.05;94.62;98946.13;218681;1257;141135;-69
2023/11/20 22:21:24;;;;;;;34.20;19.30;;;;;;;5.94;94.63;98948.34;220182;1256;139916;-69
2023/11/20 22:26:27;;;;;;;34.00;17.10;;;;;;;5.82;94.60;98946.31;218744;1259;141254;-68
2023/11/20 22:31:31;;;;;;;29.10;17.10;;;;;;;5.68;94.70;98951.45;217873;1257;140640;-67
2023/11/20 22:36:34;;;;;;;47.50;17.50;;;;;;;5.60;95.00;98956.70;220449;1257;140692;-68
2023/11/20 22:41:40;;;;;;;39.20;16.30;;;;;;;5.51;94.71;98952.26;220336;1256;140916;-68
2023/11/20 22:46:44;;;;;;;23.30;16.50;;;;;;;5.44;95.10;98957.88;220121;1256;140359;-68
2023/11/20 22:51:48;;;;;;;27.50;17.30;;;;;;;5.45;95.22;98959.02;220159;1256;140855;-67
2023/11/20 22:56:52;;;;;;;32.10;17.20;;;;;;;5.43;95.22;98958.13;220173;1259;142761;-68
2023/11/20 23:01:55;;;;;;;42.80;19.10;;;;;;;5.40;94.85;98953.97;220285;1256;142656;-68
2023/11/20 23:06:59;;;;;;;31.40;17.30;;;;;;;5.37;94.90;98953.19;220217;1256;140867;-68
2023/11/20 23:12:01;;;;;;;38.30;16.50;;;;;;;5.35;94.78;98955.20;220379;1256;140389;-68
2023/11/20 23:17:04;;;;;;;21.90;14.70;;;;;;;5.28;94.51;98959.41;220099;1256;140520;-68